createdAt,value
2023-06-07T00:02:33.017Z,16.56
2023-06-07T00:05:40.367Z,16.53
2023-06-07T00:08:44.818Z,16.50
2023-06-07T00:11:47.213Z,16.41
2023-06-07T00:14:49.601Z,16.51
2023-06-07T00:17:52.181Z,16.52
2023-06-07T00:20:54.930Z,16.46
2023-06-07T00:23:57.339Z,16.49
2023-06-07T00:26:59.753Z,16.40
2023-06-07T00:30:05.034Z,16.38
2023-06-07T00:33:08.538Z,16.47
2023-06-07T00:36:10.970Z,16.43
2023-06-07T00:39:13.455Z,16.33
2023-06-07T00:42:16.055Z,16.30
2023-06-07T00:45:18.546Z,16.28
2023-06-07T00:48:21.186Z,16.25
2023-06-07T00:51:24.090Z,16.26
2023-06-07T00:54:28.235Z,16.11
2023-06-07T00:57:33.898Z,16.23
2023-06-07T01:00:36.617Z,16.17
2023-06-07T01:03:39.290Z,16.13
2023-06-07T01:06:41.810Z,16.20
2023-06-07T01:09:44.808Z,16.17
2023-06-07T01:12:50.714Z,16.13
2023-06-07T01:15:53.401Z,16.08
2023-06-07T01:18:57.763Z,16.23
2023-06-07T01:22:08.238Z,16.26
2023-06-07T01:25:10.965Z,16.25
2023-06-07T01:28:15.631Z,16.24
2023-06-07T01:31:18.926Z,16.35
2023-06-07T01:34:21.620Z,16.13
2023-06-07T01:37:26.011Z,16.21
2023-06-07T01:40:31.417Z,16.08
2023-06-07T01:43:35.097Z,16.08
2023-06-07T01:46:38.709Z,16.11
2023-06-07T01:49:41.172Z,16.29
2023-06-07T01:52:43.571Z,16.33
2023-06-07T01:55:46.107Z,16.32
2023-06-07T01:59:04.402Z,16.33
2023-06-07T02:02:09.730Z,16.42
2023-06-07T02:05:21.473Z,16.42
2023-06-07T02:08:39.035Z,16.31
2023-06-07T02:11:43.477Z,16.30
2023-06-07T02:14:47.212Z,16.19
2023-06-07T02:18:02.385Z,16.30
2023-06-07T02:21:05.198Z,16.19
2023-06-07T02:24:08.235Z,16.35
2023-06-07T02:27:10.792Z,16.41
2023-06-07T02:30:14.560Z,16.39
2023-06-07T02:33:17.303Z,16.45
2023-06-07T02:36:23.361Z,16.43
2023-06-07T02:39:25.812Z,16.40
2023-06-07T02:42:28.649Z,16.27
2023-06-07T02:45:32.337Z,16.27
2023-06-07T02:48:34.741Z,16.25
2023-06-07T02:51:38.615Z,16.06
2023-06-07T02:54:42.521Z,16.32
2023-06-07T02:57:45.275Z,16.33
2023-06-07T03:00:49.866Z,16.29
2023-06-07T03:03:53.020Z,16.32
2023-06-07T03:06:56.840Z,16.22
2023-06-07T03:10:06.995Z,16.21
2023-06-07T03:13:09.822Z,16.26
2023-06-07T03:16:13.660Z,16.29
2023-06-07T03:19:25.757Z,16.43
2023-06-07T03:22:30.266Z,16.41
2023-06-07T03:25:32.848Z,16.14
2023-06-07T03:28:35.863Z,16.36
2023-06-07T03:31:40.111Z,16.28
2023-06-07T03:34:46.662Z,16.26
2023-06-07T03:37:49.726Z,16.29
2023-06-07T03:40:57.760Z,16.38
2023-06-07T03:44:02.284Z,16.44
2023-06-07T03:47:06.129Z,16.42
2023-06-07T03:50:09.183Z,16.36
2023-06-07T03:53:13.693Z,16.42
2023-06-07T03:56:18.679Z,16.39
2023-06-07T03:59:22.013Z,16.28
2023-06-07T04:02:24.868Z,16.34
2023-06-07T04:05:27.383Z,16.26
2023-06-07T04:08:31.054Z,16.48
2023-06-07T04:11:33.574Z,16.25
2023-06-07T04:14:36.211Z,16.31
2023-06-07T04:17:38.765Z,16.36
2023-06-07T04:20:42.726Z,16.27
2023-06-07T04:23:47.767Z,16.40
2023-06-07T04:26:57.028Z,16.30
2023-06-07T04:30:03.182Z,16.29
2023-06-07T04:33:11.788Z,16.41
2023-06-07T04:36:20.121Z,16.50
2023-06-07T04:39:23.217Z,16.40
2023-06-07T04:42:28.522Z,16.54
2023-06-07T04:45:42.495Z,16.45
2023-06-07T04:48:47.195Z,16.57
2023-06-07T04:51:51.911Z,16.62
2023-06-07T04:54:58.075Z,16.79
2023-06-07T04:58:05.766Z,16.79
2023-06-07T05:01:12.441Z,16.80
2023-06-07T05:04:18.003Z,16.94
2023-06-07T05:07:27.893Z,16.81
2023-06-07T05:10:31.929Z,16.84
2023-06-07T05:13:37.107Z,16.90
2023-06-07T05:16:42.456Z,17.13
2023-06-07T05:19:46.397Z,17.16
2023-06-07T05:22:49.337Z,17.30
2023-06-07T05:25:52.368Z,17.33
2023-06-07T05:28:54.969Z,17.33
2023-06-07T05:31:58.088Z,17.28
2023-06-07T05:35:01.227Z,17.39
2023-06-07T05:38:04.974Z,17.30
2023-06-07T05:41:08.973Z,17.40
2023-06-07T05:44:11.473Z,17.55
2023-06-07T05:47:14.586Z,17.77
2023-06-07T05:50:20.495Z,17.56
2023-06-07T05:53:24.566Z,17.71
2023-06-07T05:56:28.960Z,17.85
2023-06-07T05:59:31.631Z,18.00
2023-06-07T06:02:35.948Z,17.93
2023-06-07T06:05:38.414Z,18.01
2023-06-07T06:08:40.812Z,18.16
2023-06-07T06:11:43.294Z,18.08
2023-06-07T06:14:45.688Z,18.27
2023-06-07T06:17:50.950Z,18.30
2023-06-07T06:20:53.408Z,18.35
2023-06-07T06:23:55.833Z,18.45
2023-06-07T06:26:58.220Z,18.47
2023-06-07T06:30:00.661Z,18.46
2023-06-07T06:33:03.421Z,18.54
2023-06-07T06:36:05.897Z,18.41
2023-06-07T06:39:09.338Z,18.29
2023-06-07T06:42:11.851Z,17.99
2023-06-07T06:45:43.950Z,17.91
2023-06-07T06:48:55.793Z,18.05
2023-06-07T06:52:05.885Z,18.17
2023-06-07T06:55:08.797Z,18.03
2023-06-07T06:58:11.409Z,17.97
2023-06-07T07:01:18.155Z,17.95
2023-06-07T07:04:20.718Z,17.99
2023-06-07T07:07:23.176Z,18.44
2023-06-07T07:10:25.692Z,18.59
2023-06-07T07:13:28.134Z,18.28
2023-06-07T07:16:32.165Z,18.39
2023-06-07T07:19:34.581Z,18.23
2023-06-07T07:22:36.933Z,18.30
2023-06-07T07:25:39.939Z,18.88
2023-06-07T07:28:42.420Z,18.94
2023-06-07T07:31:44.999Z,19.35
2023-06-07T07:34:47.475Z,19.76
2023-06-07T07:37:50.604Z,20.25
2023-06-07T07:40:52.994Z,20.23
2023-06-07T07:43:58.375Z,19.90
2023-06-07T07:47:01.317Z,19.55
2023-06-07T07:50:06.203Z,19.54
2023-06-07T07:53:08.971Z,19.21
2023-06-07T07:56:11.433Z,19.23
2023-06-07T07:59:13.896Z,19.05
2023-06-07T08:02:16.577Z,18.80
2023-06-07T08:05:18.988Z,18.75
2023-06-07T08:08:22.107Z,18.88
2023-06-07T08:11:25.664Z,18.88
2023-06-07T08:14:28.187Z,18.92
2023-06-07T08:17:32.034Z,19.05
2023-06-07T08:20:34.607Z,19.24
2023-06-07T08:23:37.586Z,19.32
2023-06-07T08:26:40.030Z,19.48
2023-06-07T08:29:42.429Z,19.43
2023-06-07T08:32:46.558Z,19.30
2023-06-07T08:35:48.979Z,19.22
2023-06-07T08:38:51.389Z,19.26
2023-06-07T08:41:53.997Z,19.45
2023-06-07T08:44:56.427Z,19.30
2023-06-07T08:48:05.885Z,19.44
2023-06-07T08:51:10.112Z,19.63
2023-06-07T08:54:17.004Z,19.68
2023-06-07T08:57:20.125Z,19.51
2023-06-07T09:00:26.813Z,19.57
2023-06-07T09:03:29.733Z,19.48
2023-06-07T09:06:35.605Z,19.68
2023-06-07T09:09:41.269Z,19.78
2023-06-07T09:12:46.718Z,19.72
2023-06-07T09:15:50.588Z,19.90
2023-06-07T09:18:56.616Z,19.98
2023-06-07T09:21:59.182Z,20.46
2023-06-07T09:25:07.978Z,20.75
2023-06-07T09:28:12.500Z,20.44
2023-06-07T09:31:30.580Z,20.15
2023-06-07T09:34:33.121Z,19.66
2023-06-07T09:37:45.724Z,19.73
2023-06-07T09:40:52.450Z,19.48
2023-06-07T09:43:57.809Z,19.17
2023-06-07T09:47:04.473Z,19.24
2023-06-07T09:50:08.978Z,19.38
2023-06-07T09:53:11.539Z,19.88
2023-06-07T09:56:22.790Z,20.33
2023-06-07T09:59:25.482Z,20.77
2023-06-07T10:02:29.971Z,20.96
2023-06-07T10:05:32.437Z,21.27
2023-06-07T10:08:38.337Z,21.54
2023-06-07T10:11:47.008Z,22.00
2023-06-07T10:14:50.127Z,22.34
2023-06-07T10:17:58.782Z,22.37
2023-06-07T10:21:12.490Z,22.36
2023-06-07T10:24:21.901Z,22.49
2023-06-07T10:27:28.097Z,22.79
2023-06-07T10:30:33.573Z,23.82
2023-06-07T10:33:37.130Z,24.75
2023-06-07T10:36:40.840Z,23.87
2023-06-07T10:39:43.324Z,23.96
2023-06-07T10:42:47.970Z,24.88
2023-06-07T10:46:26.413Z,27.10
2023-06-07T10:49:38.225Z,27.20
2023-06-07T10:52:56.441Z,28.21
2023-06-07T10:56:27.980Z,27.26
2023-06-07T10:59:30.690Z,28.39
2023-06-07T11:02:33.441Z,29.39
2023-06-07T11:05:54.636Z,28.72
2023-06-07T11:09:20.526Z,27.69
2023-06-07T11:12:45.998Z,27.42
2023-06-07T11:15:48.676Z,26.39
2023-06-07T11:18:55.755Z,25.79
2023-06-07T11:22:05.633Z,24.95
2023-06-07T11:25:14.958Z,24.57
2023-06-07T11:28:22.312Z,23.78
2023-06-07T11:31:24.743Z,23.96
2023-06-07T11:34:30.413Z,24.49
2023-06-07T11:37:32.940Z,24.68
2023-06-07T11:40:35.988Z,24.49
2023-06-07T11:43:38.546Z,23.88
2023-06-07T11:46:41.059Z,23.70
2023-06-07T11:49:43.482Z,23.10
2023-06-07T11:52:48.054Z,22.87
2023-06-07T11:55:50.835Z,22.63
2023-06-07T11:58:53.202Z,22.50
2023-06-07T12:01:56.711Z,22.08
2023-06-07T12:04:59.549Z,21.98
2023-06-07T12:08:07.255Z,21.99
2023-06-07T12:11:09.681Z,21.87
2023-06-07T12:14:13.086Z,21.89
2023-06-07T12:17:15.554Z,21.94
2023-06-07T12:20:18.036Z,21.84
2023-06-07T12:23:21.758Z,21.92
2023-06-07T12:26:32.357Z,22.09
2023-06-07T12:29:35.155Z,22.06
2023-06-07T12:32:37.922Z,22.51
2023-06-07T12:35:40.757Z,22.72
2023-06-07T12:38:44.294Z,22.49
2023-06-07T12:41:46.631Z,22.59
2023-06-07T12:44:50.141Z,22.26
2023-06-07T12:47:52.966Z,22.39
2023-06-07T12:50:55.427Z,22.19
2023-06-07T12:53:57.885Z,21.78
2023-06-07T12:57:00.273Z,21.74
2023-06-07T13:00:03.278Z,21.96
2023-06-07T13:03:06.077Z,21.93
2023-06-07T13:06:09.052Z,21.72
2023-06-07T13:09:12.391Z,21.75
2023-06-07T13:12:16.246Z,21.48
2023-06-07T13:15:19.080Z,21.53
2023-06-07T13:18:21.771Z,21.34
2023-06-07T13:21:24.424Z,21.31
2023-06-07T13:24:26.896Z,21.37
2023-06-07T13:27:29.297Z,21.33
2023-06-07T13:30:32.744Z,21.71
2023-06-07T13:33:35.192Z,21.90
2023-06-07T13:36:38.018Z,22.36
2023-06-07T13:39:40.709Z,22.59
2023-06-07T13:42:43.097Z,22.64
2023-06-07T13:45:46.656Z,22.99
2023-06-07T13:48:49.462Z,22.91
2023-06-07T13:51:51.882Z,22.79
2023-06-07T13:54:55.854Z,22.95
2023-06-07T13:57:58.322Z,22.77
2023-06-07T14:01:04.033Z,23.06
2023-06-07T14:04:07.349Z,22.81
2023-06-07T14:07:09.817Z,22.44
2023-06-07T14:10:13.039Z,23.00
2023-06-07T14:13:16.055Z,22.75
2023-06-07T14:16:20.491Z,22.81
2023-06-07T14:19:22.989Z,22.88
2023-06-07T14:22:25.849Z,22.73
2023-06-07T14:25:28.256Z,22.77
2023-06-07T14:28:30.681Z,22.58
2023-06-07T14:31:33.261Z,22.45
2023-06-07T14:34:35.737Z,22.76
2023-06-07T14:37:38.170Z,22.98
2023-06-07T14:40:40.628Z,23.13
2023-06-07T14:43:43.149Z,22.96
2023-06-07T14:46:45.668Z,22.87
2023-06-07T14:49:48.146Z,22.86
2023-06-07T14:52:50.591Z,22.76
2023-06-07T14:55:53.047Z,22.59
2023-06-07T14:58:55.489Z,22.59
2023-06-07T15:01:57.954Z,22.61
2023-06-07T15:05:01.175Z,22.44
2023-06-07T15:08:06.134Z,22.45
2023-06-07T15:11:08.632Z,22.00
2023-06-07T15:14:11.293Z,21.86
2023-06-07T15:17:13.799Z,22.00
2023-06-07T15:20:16.267Z,22.05
2023-06-07T15:23:18.763Z,22.50
2023-06-07T15:26:22.051Z,22.63
2023-06-07T15:29:24.630Z,22.66
2023-06-07T15:32:27.097Z,22.89
2023-06-07T15:35:29.562Z,22.87
2023-06-07T15:38:38.313Z,22.73
2023-06-07T15:41:40.846Z,22.83
2023-06-07T15:44:45.972Z,22.72
2023-06-07T15:48:02.270Z,22.50
2023-06-07T15:51:04.798Z,22.44
2023-06-07T15:54:07.235Z,22.71
2023-06-07T15:57:09.753Z,22.41
2023-06-07T16:00:27.373Z,22.43
2023-06-07T16:03:50.767Z,22.57
2023-06-07T16:06:57.301Z,22.22
2023-06-07T16:09:59.828Z,22.17
2023-06-07T16:13:02.310Z,22.16
2023-06-07T16:16:04.966Z,21.93
2023-06-07T16:19:07.508Z,21.90
2023-06-07T16:22:10.177Z,21.61
2023-06-07T16:25:12.859Z,21.72
2023-06-07T16:28:16.859Z,21.47
2023-06-07T16:31:19.458Z,21.45
2023-06-07T16:34:21.907Z,21.44
2023-06-07T16:37:24.326Z,21.54
2023-06-07T16:40:26.871Z,21.55
2023-06-07T16:43:29.345Z,21.49
2023-06-07T16:46:32.224Z,21.24
2023-06-07T16:49:34.788Z,21.48
2023-06-07T16:52:37.184Z,21.39
2023-06-07T16:55:39.656Z,21.13
2023-06-07T16:58:42.098Z,21.03
2023-06-07T17:01:44.559Z,20.95
2023-06-07T17:04:47.171Z,20.88
2023-06-07T17:07:51.343Z,20.90
2023-06-07T17:10:53.786Z,20.78
2023-06-07T17:13:56.592Z,20.63
2023-06-07T17:16:59.022Z,20.63
2023-06-07T17:20:01.736Z,20.59
2023-06-07T17:23:04.233Z,20.71
2023-06-07T17:26:07.889Z,20.66
2023-06-07T17:29:27.438Z,20.69
2023-06-07T17:32:31.838Z,20.81
2023-06-07T17:35:34.403Z,20.88
2023-06-07T17:38:36.917Z,20.76
2023-06-07T17:41:40.469Z,20.72
2023-06-07T17:44:42.966Z,20.78
2023-06-07T17:47:51.742Z,20.80
2023-06-07T17:50:54.500Z,20.71
2023-06-07T17:53:57.013Z,20.78
2023-06-07T17:56:59.494Z,20.58
2023-06-07T18:00:01.965Z,20.12
2023-06-07T18:03:07.096Z,20.06
2023-06-07T18:06:09.687Z,19.65
2023-06-07T18:09:12.150Z,19.38
2023-06-07T18:12:15.525Z,19.43
2023-06-07T18:15:18.008Z,19.47
2023-06-07T18:18:20.948Z,19.06
2023-06-07T18:21:23.376Z,18.97
2023-06-07T18:24:25.895Z,19.21
2023-06-07T18:27:29.329Z,18.86
2023-06-07T18:30:32.535Z,18.92
2023-06-07T18:33:36.748Z,19.11
2023-06-07T18:36:39.247Z,19.01
2023-06-07T18:39:41.717Z,18.98
2023-06-07T18:42:44.248Z,18.90
2023-06-07T18:45:48.867Z,18.99
2023-06-07T18:48:51.680Z,18.98
2023-06-07T18:51:55.037Z,18.93
2023-06-07T18:54:57.646Z,18.87
2023-06-07T18:58:00.115Z,18.69
2023-06-07T19:01:02.615Z,18.64
2023-06-07T19:04:05.150Z,18.58
2023-06-07T19:07:07.846Z,18.78
2023-06-07T19:10:10.820Z,18.64
2023-06-07T19:13:14.544Z,18.53
2023-06-07T19:16:17.330Z,18.56
2023-06-07T19:19:19.823Z,18.52
2023-06-07T19:22:22.293Z,18.32
2023-06-07T19:25:25.764Z,18.51
2023-06-07T19:28:28.290Z,18.35
2023-06-07T19:31:30.852Z,18.09
2023-06-07T19:34:34.095Z,17.92
2023-06-07T19:37:36.590Z,17.93
2023-06-07T19:40:39.036Z,17.91
2023-06-07T19:43:41.915Z,17.79
2023-06-07T19:46:44.462Z,17.93
2023-06-07T19:49:47.446Z,17.82
2023-06-07T19:52:49.974Z,17.47
2023-06-07T19:55:52.444Z,17.35
2023-06-07T19:58:54.943Z,17.51
2023-06-07T20:01:58.720Z,17.31
2023-06-07T20:05:01.203Z,17.43
2023-06-07T20:08:03.872Z,17.24
2023-06-07T20:11:06.319Z,17.32
2023-06-07T20:14:10.651Z,17.51
2023-06-07T20:17:13.760Z,17.51
2023-06-07T20:20:16.702Z,17.26
2023-06-07T20:23:19.174Z,17.51
2023-06-07T20:26:21.643Z,17.10
2023-06-07T20:29:24.073Z,17.28
2023-06-07T20:32:26.826Z,17.03
2023-06-07T20:35:32.371Z,17.06
2023-06-07T20:38:35.056Z,17.08
2023-06-07T20:41:37.451Z,16.99
2023-06-07T20:44:52.052Z,16.80
2023-06-07T20:47:55.707Z,16.91
2023-06-07T20:50:58.366Z,16.76
2023-06-07T20:54:01.052Z,16.80
2023-06-07T20:57:03.578Z,16.69
2023-06-07T21:00:07.026Z,16.53
2023-06-07T21:03:11.940Z,16.62
2023-06-07T21:06:14.928Z,16.65
2023-06-07T21:09:17.404Z,16.39
2023-06-07T21:12:19.851Z,16.45
2023-06-07T21:15:22.258Z,16.66
2023-06-07T21:18:25.066Z,16.41
2023-06-07T21:21:27.591Z,16.41
2023-06-07T21:24:30.006Z,16.36
2023-06-07T21:27:32.402Z,16.56
2023-06-07T21:30:34.890Z,16.43
2023-06-07T21:33:37.335Z,16.34
2023-06-07T21:36:39.832Z,16.61
2023-06-07T21:39:42.208Z,16.67
2023-06-07T21:42:44.580Z,16.58
2023-06-07T21:45:46.981Z,16.53
2023-06-07T21:48:49.455Z,16.52
2023-06-07T21:51:52.093Z,16.48
2023-06-07T21:54:54.506Z,16.53
2023-06-07T21:57:56.937Z,16.58
2023-06-07T22:00:59.415Z,16.50
2023-06-07T22:04:01.838Z,16.39
2023-06-07T22:07:04.339Z,16.53
2023-06-07T22:10:07.366Z,16.51
2023-06-07T22:13:10.032Z,16.49
2023-06-07T22:16:13.813Z,16.36
2023-06-07T22:19:19.897Z,16.43
2023-06-07T22:22:25.555Z,16.29
2023-06-07T22:25:40.282Z,16.25
2023-06-07T22:28:43.675Z,16.31
2023-06-07T22:31:46.208Z,16.21
2023-06-07T22:34:50.238Z,16.28
2023-06-07T22:37:52.797Z,16.03
2023-06-07T22:40:55.836Z,16.11
2023-06-07T22:43:58.973Z,16.22
2023-06-07T22:47:01.405Z,16.04
2023-06-07T22:50:04.486Z,15.93
2023-06-07T22:53:15.427Z,16.00
2023-06-07T22:56:17.959Z,15.99
2023-06-07T22:59:20.678Z,15.90
2023-06-07T23:02:23.153Z,15.97
2023-06-07T23:05:28.319Z,16.02
2023-06-07T23:08:33.874Z,16.08
2023-06-07T23:11:36.309Z,16.12
2023-06-07T23:14:38.750Z,16.14
2023-06-07T23:17:42.557Z,16.07
2023-06-07T23:20:46.473Z,16.22
2023-06-07T23:23:51.238Z,16.31
2023-06-07T23:26:56.424Z,16.43
2023-06-07T23:29:58.929Z,16.33
2023-06-07T23:33:01.433Z,16.41
2023-06-07T23:36:04.369Z,16.23
2023-06-07T23:39:06.775Z,16.28
2023-06-07T23:42:09.212Z,16.18
2023-06-07T23:45:12.457Z,16.02
2023-06-07T23:48:15.077Z,16.29
2023-06-07T23:51:17.660Z,16.15
2023-06-07T23:54:22.359Z,16.30
2023-06-07T23:57:24.826Z,16.34
